Time;durP1;ratioP1;P1;durP2;ratioP2;P2;SDS_P1;SDS_P2;PMS_P1;PMS_P2;Temp;Humidity;BMP_temperature;BMP_pressure;BME280_temperature;BME280_humidity;BME280_pressure;Samples;Min_cycle;Max_cycle;Signal;HPM_P1;HPM_P2
2023/10/26 00:01:25;;;;;;;24.85;3.63;;;;;;;17.56;100.00;96534.28;5087532;28;20016;-76
2023/10/26 00:03:51;;;;;;;16.33;2.58;;;;;;;17.54;100.00;96534.41;5070983;28;20029;-77
2023/10/26 00:06:16;;;;;;;15.93;2.50;;;;;;;17.57;100.00;96534.13;5070717;28;20020;-76
2023/10/26 00:08:44;;;;;;;13.82;3.10;;;;;;;17.54;100.00;96531.72;5070856;28;20024;-76
2023/10/26 00:11:10;;;;;;;19.63;2.90;;;;;;;17.58;100.00;96533.13;5070785;28;20414;-77
2023/10/26 00:13:35;;;;;;;16.65;3.72;;;;;;;17.58;100.00;96533.13;5071758;28;20025;-76
2023/10/26 00:16:01;;;;;;;20.23;3.03;;;;;;;17.59;100.00;96529.41;5070921;28;20041;-76
2023/10/26 00:18:26;;;;;;;15.35;2.80;;;;;;;17.53;100.00;96519.22;5070421;28;20024;-76
2023/10/26 00:20:59;;;;;;;13.80;3.33;;;;;;;17.50;100.00;96514.13;5070317;28;20431;-75
2023/10/26 00:23:24;;;;;;;;;;;;;;;17.50;100.00;96524.09;5070743;28;20480;-76
2023/10/26 00:25:49;;;;;;;24.55;2.85;;;;;;;17.43;100.00;96510.38;5070546;28;19968;-77
2023/10/26 00:28:15;;;;;;;18.27;2.63;;;;;;;17.38;100.00;96501.88;5070235;28;20062;-77
2023/10/26 00:30:40;;;;;;;17.17;3.35;;;;;;;17.37;100.00;96497.50;5071481;28;20020;-76
2023/10/26 00:33:06;;;;;;;10.63;2.47;;;;;;;17.37;100.00;96500.22;5053596;28;20039;-76
2023/10/26 00:35:31;;;;;;;21.83;2.83;;;;;;;17.34;100.00;96495.13;5070156;28;20032;-75
2023/10/26 00:37:57;;;;;;;18.02;3.30;;;;;;;17.29;100.00;96494.75;5069893;28;20102;-76
2023/10/26 00:40:23;;;;;;;15.98;2.47;;;;;;;17.26;100.00;96498.63;5069969;28;20123;-77
2023/10/26 00:42:49;;;;;;;20.83;2.75;;;;;;;17.28;100.00;96495.78;5069993;28;20493;-76
2023/10/26 00:45:14;;;;;;;21.77;3.10;;;;;;;17.28;100.00;96496.63;5070227;28;20040;-77
2023/10/26 00:47:40;;;;;;;17.38;3.10;;;;;;;17.27;100.00;96494.09;5069841;28;20056;-76
2023/10/26 00:50:07;;;;;;;12.10;2.60;;;;;;;17.27;100.00;96500.34;5069894;28;20052;-76
2023/10/26 00:52:35;;;;;;;21.73;3.42;;;;;;;17.27;100.00;96500.34;5069605;28;20480;-76
2023/10/26 00:55:01;;;;;;;16.17;2.75;;;;;;;17.27;100.00;96483.28;5070173;28;20111;-75
2023/10/26 00:57:27;;;;;;;21.23;2.97;;;;;;;17.41;100.00;96479.94;5069616;28;20460;-75
2023/10/26 00:59:53;;;;;;;11.10;2.58;;;;;;;17.61;100.00;96489.53;5086511;28;20119;-76
2023/10/26 01:02:18;;;;;;;13.18;2.33;;;;;;;17.69;100.00;96484.13;5069800;28;20032;-74
2023/10/26 01:04:44;;;;;;;13.77;2.88;;;;;;;17.65;100.00;96469.25;5069273;28;20036;-76
2023/10/26 01:07:10;;;;;;;12.80;2.55;;;;;;;17.65;100.00;96476.53;5069626;28;20028;-77
2023/10/26 01:09:35;;;;;;;8.73;2.17;;;;;;;17.51;100.00;96469.00;5069278;28;20032;-76
2023/10/26 01:12:01;;;;;;;12.40;2.83;;;;;;;17.42;100.00;96464.56;5069683;28;20467;-76
2023/10/26 01:14:27;;;;;;;18.77;2.97;;;;;;;17.37;100.00;96473.19;5069497;28;20435;-76
2023/10/26 01:16:54;;;;;;;11.15;2.80;;;;;;;17.29;100.00;96470.44;5069325;28;20036;-76
2023/10/26 01:19:20;;;;;;;11.05;2.80;;;;;;;17.37;100.00;96473.19;5069394;28;20044;-76
2023/10/26 01:21:48;;;;;;;17.55;2.90;;;;;;;17.51;100.00;96475.25;5068957;28;20048;-76
2023/10/26 01:24:14;;;;;;;15.15;2.65;;;;;;;17.83;100.00;96463.72;5070697;28;20025;-76
2023/10/26 01:26:40;;;;;;;11.02;2.70;;;;;;;18.27;100.00;96454.25;5052484;28;20032;-77
2023/10/26 01:29:06;;;;;;;15.55;2.22;;;;;;;18.68;100.00;96444.28;5069637;28;20042;-76
2023/10/26 01:31:32;;;;;;;13.38;2.72;;;;;;;18.89;100.00;96444.56;5069412;28;20467;-76
2023/10/26 01:33:57;;;;;;;16.30;2.15;;;;;;;18.99;100.00;96440.81;5069301;28;20072;-76
2023/10/26 01:36:23;;;;;;;12.75;2.50;;;;;;;19.14;100.00;96441.78;5070573;28;20024;-77
2023/10/26 01:38:48;;;;;;;12.73;2.20;;;;;;;19.25;100.00;96433.28;5068838;28;20033;-76
2023/10/26 01:41:14;;;;;;;15.23;2.22;;;;;;;19.37;100.00;96443.56;5069264;28;20527;-76
2023/10/26 01:43:39;;;;;;;13.88;2.70;;;;;;;19.34;100.00;96440.38;5070468;28;20059;-77
2023/10/26 01:46:05;;;;;;;13.05;2.33;;;;;;;19.32;100.00;96445.09;5069398;28;20028;-77
2023/10/26 01:48:31;;;;;;;17.55;2.55;;;;;;;19.33;100.00;96442.22;5069359;28;20039;-75
2023/10/26 01:50:56;;;;;;;19.35;2.65;;;;;;;19.52;100.00;96442.84;5069005;28;20090;-76
2023/10/26 01:53:23;;;;;;;13.77;2.25;;;;;;;19.49;100.00;96435.91;5085911;28;20035;-76
2023/10/26 01:55:49;;;;;;;15.68;2.80;;;;;;;19.58;100.00;96432.13;5085666;28;20024;-75
2023/10/26 01:58:15;;;;;;;11.85;2.58;;;;;;;19.61;100.00;96434.50;5069178;28;20345;-75
2023/10/26 02:00:41;;;;;;;11.00;2.30;;;;;;;19.72;100.00;96444.13;5069084;28;20049;-76
2023/10/26 02:03:07;;;;;;;13.30;2.15;;;;;;;19.69;100.00;96433.59;5069157;28;20098;-76
2023/10/26 02:05:33;;;;;;;16.25;2.47;;;;;;;19.63;100.00;96435.16;5069104;28;20032;-75
2023/10/26 02:07:58;;;;;;;9.18;2.10;;;;;;;19.64;100.00;96445.00;5068787;28;20024;-76
2023/10/26 02:10:29;;;;;;;11.15;2.75;;;;;;;19.66;100.00;96450.22;5068993;28;20040;-76
2023/10/26 02:12:55;;;;;;;9.57;1.85;;;;;;;19.61;100.00;96445.34;5069464;28;20086;-76
2023/10/26 02:15:21;;;;;;;11.55;1.90;;;;;;;19.62;100.00;96444.34;5069337;28;20472;-76
2023/10/26 02:17:46;;;;;;;8.35;2.10;;;;;;;19.60;100.00;96434.66;5069951;28;20032;-77
2023/10/26 02:20:12;;;;;;;9.43;2.75;;;;;;;19.54;100.00;96441.66;5069668;28;20052;-76
2023/10/26 02:22:37;;;;;;;14.23;1.95;;;;;;;19.37;100.00;96434.59;5072872;28;20050;-75
2023/10/26 02:25:03;;;;;;;12.10;2.25;;;;;;;19.53;100.00;96450.81;5072447;28;20467;-75
2023/10/26 02:27:28;;;;;;;26.58;7.22;;;;;;;19.44;100.00;96446.47;5072932;28;20081;-75
2023/10/26 02:29:56;;;;;;;13.15;2.60;;;;;;;19.43;100.00;96455.63;5072802;28;20033;-75
2023/10/26 02:32:21;;;;;;;27.75;6.53;;;;;;;19.32;100.00;96450.53;5072781;28;20032;-75
2023/10/26 02:34:47;;;;;;;15.05;2.45;;;;;;;19.29;100.00;96459.84;5072950;28;20103;-76
2023/10/26 02:37:12;;;;;;;11.10;3.17;;;;;;;19.23;100.00;96444.28;5072324;28;20044;-75
2023/10/26 02:39:38;;;;;;;15.77;3.40;;;;;;;19.21;100.00;96448.22;5072967;28;20158;-75
2023/10/26 02:42:04;;;;;;;18.20;6.68;;;;;;;19.18;100.00;96445.84;5072244;28;20123;-76
2023/10/26 02:44:29;;;;;;;11.23;2.30;;;;;;;19.19;100.00;96442.97;5072724;28;20443;-75
2023/10/26 02:46:54;;;;;;;17.45;6.28;;;;;;;19.29;100.00;96442.75;5072737;28;20609;-75
2023/10/26 02:49:20;;;;;;;11.88;3.35;;;;;;;19.27;100.00;96442.09;5072396;28;20085;-76
2023/10/26 02:51:45;;;;;;;19.08;3.80;;;;;;;19.25;100.00;96441.44;5072447;28;20047;-76
2023/10/26 02:54:11;;;;;;;7.63;1.75;;;;;;;19.32;100.00;96437.81;5055453;28;20507;-76
2023/10/26 02:56:36;;;;;;;16.05;2.83;;;;;;;19.38;100.00;96434.41;5072348;28;20019;-76
2023/10/26 02:59:02;;;;;;;26.05;7.03;;;;;;;19.36;100.00;96433.75;5072109;28;20113;-76
2023/10/26 03:01:34;;;;;;;10.80;4.05;;;;;;;19.31;100.00;96428.00;5072028;28;20032;-76
2023/10/26 03:04:00;;;;;;;;;;;;;;;19.31;100.00;96438.00;5072586;28;20035;-76
2023/10/26 03:06:26;;;;;;;7.60;1.90;;;;;;;19.16;100.00;96427.06;5071938;28;19916;-76
2023/10/26 03:08:51;;;;;;;16.83;2.63;;;;;;;19.18;100.00;96440.44;5088850;28;20123;-76
2023/10/26 03:11:17;;;;;;;11.02;3.35;;;;;;;19.12;100.00;96436.56;5071456;28;20037;-76
2023/10/26 03:13:42;;;;;;;12.57;3.00;;;;;;;19.14;100.00;96441.78;5055506;28;20120;-75
2023/10/26 03:16:08;;;;;;;9.13;2.15;;;;;;;19.01;100.00;96436.09;5072425;28;20032;-73
2023/10/26 03:18:33;;;;;;;16.27;4.72;;;;;;;18.94;100.00;96463.03;5088304;28;20102;-73
2023/10/26 03:21:00;;;;;;;9.88;3.00;;;;;;;18.82;100.00;96461.72;5073210;28;20128;-86
2023/10/26 03:23:26;;;;;;;12.15;3.35;;;;;;;18.64;100.00;96470.00;5071840;28;20107;-73
2023/10/26 03:25:51;;;;;;;18.60;3.53;;;;;;;18.52;100.00;96476.81;5072774;28;20103;-72
2023/10/26 03:28:16;;;;;;;15.88;3.53;;;;;;;18.41;100.00;96490.66;5072404;28;20035;-73
2023/10/26 03:30:42;;;;;;;17.52;3.15;;;;;;;18.28;100.00;96487.59;5072893;28;20450;-73
2023/10/26 03:33:07;;;;;;;17.02;2.90;;;;;;;18.08;100.00;96492.50;5086822;28;20135;-73
2023/10/26 03:35:35;;;;;;;19.00;3.47;;;;;;;18.04;100.00;96485.72;5071140;28;20025;-73
2023/10/26 03:38:01;;;;;;;16.55;3.50;;;;;;;17.99;100.00;96482.69;5054480;28;20097;-73
2023/10/26 03:40:27;;;;;;;18.13;4.60;;;;;;;17.94;100.00;96476.91;5071110;28;20491;-73
2023/10/26 03:42:52;;;;;;;12.18;2.80;;;;;;;17.82;100.00;96468.28;5071165;28;20468;-73
2023/10/26 03:45:18;;;;;;;7.35;2.97;;;;;;;17.84;100.00;96465.41;5072770;28;20031;-73
2023/10/26 03:47:43;;;;;;;13.00;3.05;;;;;;;17.79;100.00;96474.00;5071263;28;20047;-73
2023/10/26 03:50:09;;;;;;;19.55;3.78;;;;;;;17.73;100.00;96457.59;5071211;28;20128;-71
2023/10/26 03:52:34;;;;;;;20.55;4.00;;;;;;;17.69;100.00;96462.47;5071080;28;20028;-73
2023/10/26 03:55:00;;;;;;;21.77;5.53;;;;;;;17.70;100.00;96461.47;5072631;28;20028;-73
2023/10/26 03:57:26;;;;;;;32.95;10.77;;;;;;;17.63;100.00;96462.28;5070864;28;20032;-73
2023/10/26 03:59:51;;;;;;;16.67;4.00;;;;;;;17.54;100.00;96453.28;5072137;28;20115;-73
2023/10/26 04:02:17;;;;;;;17.25;4.13;;;;;;;17.53;100.00;96458.88;5072254;28;20111;-72
2023/10/26 04:04:42;;;;;;;13.65;3.05;;;;;;;17.50;100.00;96461.91;5070872;28;20032;-72
2023/10/26 04:07:08;;;;;;;16.23;3.30;;;;;;;17.49;100.00;96463.75;5071951;28;20020;-72
2023/10/26 04:09:34;;;;;;;13.35;3.15;;;;;;;17.41;100.00;96455.59;5070869;28;20028;-72
2023/10/26 04:12:00;;;;;;;18.13;3.70;;;;;;;17.39;100.00;96444.13;5071146;28;20047;-73
2023/10/26 04:14:26;;;;;;;30.30;9.55;;;;;;;17.40;100.00;96440.41;5087368;28;20033;-74
2023/10/26 04:16:51;;;;;;;30.52;6.05;;;;;;;17.41;100.00;96442.09;5075407;28;20056;-85
2023/10/26 04:19:17;;;;;;;30.65;9.20;;;;;;;17.45;100.00;96453.41;5067662;28;20474;-72
2023/10/26 04:21:43;;;;;;;32.97;9.45;;;;;;;17.41;100.00;96450.19;5067529;28;20071;-74
2023/10/26 04:24:08;;;;;;;31.45;11.48;;;;;;;17.37;100.00;96456.97;5069190;28;20059;-73
2023/10/26 04:26:34;;;;;;;37.20;10.00;;;;;;;17.33;100.00;96461.84;5068975;28;20024;-73
2023/10/26 04:28:59;;;;;;;21.67;4.03;;;;;;;17.31;100.00;96455.78;5068040;28;20104;-73
2023/10/26 04:31:25;;;;;;;19.48;3.55;;;;;;;17.32;100.00;96459.28;5067831;28;20538;-72
2023/10/26 04:33:51;;;;;;;16.73;5.15;;;;;;;17.28;100.00;96456.09;5067361;28;20133;-72
2023/10/26 04:36:18;;;;;;;9.95;2.92;;;;;;;17.16;100.00;96448.44;5067576;28;20033;-72
2023/10/26 04:38:44;;;;;;;17.20;7.88;;;;;;;17.23;100.00;96466.53;5069820;28;20033;-73
2023/10/26 04:41:09;;;;;;;16.33;4.18;;;;;;;17.24;100.00;96448.47;5070346;28;20044;-73
2023/10/26 04:43:35;;;;;;;15.32;4.68;;;;;;;17.21;100.00;96456.91;5071079;28;20037;-73
2023/10/26 04:46:00;;;;;;;12.32;3.22;;;;;;;17.15;100.00;96465.66;5071358;28;20055;-72
2023/10/26 04:48:26;;;;;;;21.20;4.28;;;;;;;17.13;100.00;96456.88;5069777;28;20476;-72
2023/10/26 04:50:52;;;;;;;62.63;30.52;;;;;;;17.17;100.00;96469.03;5071091;28;20032;-73
2023/10/26 04:53:17;;;;;;;17.08;5.30;;;;;;;17.10;100.00;96476.09;5071616;28;20111;-73
2023/10/26 04:55:43;;;;;;;15.60;3.58;;;;;;;17.02;100.00;96463.38;5069535;28;20510;-73
2023/10/26 04:58:09;;;;;;;19.52;7.80;;;;;;;17.03;100.00;96480.44;5069652;28;20036;-72
2023/10/26 05:00:35;;;;;;;16.92;3.05;;;;;;;16.98;100.00;96469.28;5086278;28;20142;-72
2023/10/26 05:03:01;;;;;;;17.83;5.28;;;;;;;16.96;100.00;96458.63;5086326;28;20144;-73
2023/10/26 05:05:26;;;;;;;16.92;4.72;;;;;;;17.02;100.00;96473.34;5052852;28;20496;-73
2023/10/26 05:07:52;;;;;;;21.50;3.70;;;;;;;17.01;100.00;96456.28;5070426;28;20043;-72
2023/10/26 05:10:19;;;;;;;27.17;8.25;;;;;;;17.00;100.00;96451.06;5069532;28;20020;-72
2023/10/26 05:12:44;;;;;;;17.27;5.65;;;;;;;17.07;100.00;96461.03;5069394;28;20032;-72
2023/10/26 05:15:10;;;;;;;18.67;5.60;;;;;;;17.02;100.00;96449.88;5052516;28;20408;-73
2023/10/26 05:17:37;;;;;;;44.55;11.10;;;;;;;17.11;100.00;96466.97;5085925;28;20215;-72
2023/10/26 05:20:03;;;;;;;29.45;9.57;;;;;;;17.16;100.00;96470.91;5068964;28;20051;-73
2023/10/26 05:22:29;;;;;;;25.98;10.15;;;;;;;17.25;100.00;96471.78;5071019;28;20571;-73
2023/10/26 05:24:54;;;;;;;13.05;4.10;;;;;;;17.22;100.00;96459.44;5069146;28;20103;-72
2023/10/26 05:27:20;;;;;;;25.52;5.10;;;;;;;17.30;100.00;96464.03;5069389;28;20099;-73
2023/10/26 05:29:45;;;;;;;20.05;5.43;;;;;;;17.32;100.00;96459.28;5068951;28;20027;-73
2023/10/26 05:32:11;;;;;;;19.08;4.97;;;;;;;17.42;100.00;96465.41;5069199;28;20056;-74
2023/10/26 05:34:36;;;;;;;16.75;4.78;;;;;;;17.47;100.00;96459.53;5085873;28;20024;-75
2023/10/26 05:37:02;;;;;;;16.20;3.80;;;;;;;17.56;100.00;96464.84;5069867;28;20036;-74
2023/10/26 05:39:27;;;;;;;19.58;4.65;;;;;;;17.62;100.00;96460.63;5070510;28;20368;-75
2023/10/26 05:41:53;;;;;;;20.65;5.82;;;;;;;17.60;100.00;96473.44;5069374;28;20028;-75
2023/10/26 05:44:18;;;;;;;13.30;4.18;;;;;;;17.68;100.00;96476.19;5069167;28;20070;-75
2023/10/26 05:46:44;;;;;;;21.15;4.43;;;;;;;17.74;100.00;96475.53;5068671;28;20024;-74
2023/10/26 05:49:09;;;;;;;13.55;3.97;;;;;;;17.85;100.00;96465.22;5070237;28;20012;-76
2023/10/26 05:51:35;;;;;;;14.40;3.55;;;;;;;18.05;100.00;96478.47;5069056;28;20398;-76
2023/10/26 05:54:00;;;;;;;27.17;6.70;;;;;;;18.23;100.00;96481.88;5068651;28;20105;-74
2023/10/26 05:56:26;;;;;;;56.20;23.50;;;;;;;18.45;100.00;96492.03;5068554;28;20032;-75
2023/10/26 05:58:52;;;;;;;20.33;5.68;;;;;;;19.06;100.00;96496.03;5035548;28;20025;-75
2023/10/26 06:01:18;;;;;;;52.20;10.73;;;;;;;20.18;100.00;96491.97;5085599;28;20427;-74
2023/10/26 06:03:44;;;;;;;27.42;6.05;;;;;;;20.96;100.00;96486.25;5070242;28;20090;-76
2023/10/26 06:06:09;;;;;;;18.33;5.25;;;;;;;21.56;100.00;96476.06;5070135;28;20364;-76
2023/10/26 06:08:35;;;;;;;31.38;8.77;;;;;;;21.98;100.00;96490.88;5068664;28;20104;-76
2023/10/26 06:11:01;;;;;;;21.48;5.18;;;;;;;22.13;100.00;96478.91;5068884;28;20526;-75
2023/10/26 06:13:26;;;;;;;23.08;5.50;;;;;;;22.22;100.00;96486.94;5068724;28;20055;-77
2023/10/26 06:15:52;;;;;;;13.70;4.45;;;;;;;22.03;100.00;96486.53;5068252;28;20023;-76
2023/10/26 06:18:18;;;;;;;20.40;4.40;;;;;;;21.63;100.00;96482.47;5068796;28;20028;-75
2023/10/26 06:20:43;;;;;;;20.63;6.18;;;;;;;21.26;100.00;96493.44;5069701;28;20048;-76
2023/10/26 06:23:11;;;;;;;24.20;5.32;;;;;;;21.14;100.00;96492.22;5068877;28;20480;-75
2023/10/26 06:25:36;;;;;;;17.60;5.05;;;;;;;21.34;100.00;96493.38;5068108;28;20016;-76
2023/10/26 06:28:03;;;;;;;20.15;4.57;;;;;;;21.61;100.00;96489.13;5068849;28;20043;-75
2023/10/26 06:30:29;;;;;;;22.98;7.00;;;;;;;21.53;100.00;96483.81;5068475;28;20059;-75
2023/10/26 06:32:54;;;;;;;19.65;3.00;;;;;;;21.66;100.00;96470.34;5068452;28;20062;-75
2023/10/26 06:35:20;;;;;;;14.85;2.75;;;;;;;21.87;100.00;96467.66;5069905;28;20157;-75
2023/10/26 06:37:46;;;;;;;12.25;2.53;;;;;;;21.91;100.00;96471.75;5085160;28;20028;-77
2023/10/26 06:40:11;;;;;;;11.27;2.17;;;;;;;22.00;100.00;96469.72;5068187;28;20415;-75
2023/10/26 06:42:37;;;;;;;8.93;2.35;;;;;;;21.94;100.00;96452.28;5068193;28;20025;-77
2023/10/26 06:45:03;;;;;;;13.07;2.10;;;;;;;22.01;100.00;96461.38;5069368;28;20024;-77
2023/10/26 06:47:29;;;;;;;11.70;2.42;;;;;;;22.11;100.00;96463.81;5068092;28;20111;-76
2023/10/26 06:49:55;;;;;;;12.65;2.50;;;;;;;22.11;100.00;96475.53;5068297;28;20119;-76
2023/10/26 06:52:20;;;;;;;8.50;2.28;;;;;;;22.36;100.00;96477.91;5051522;28;20108;-75
2023/10/26 06:54:48;;;;;;;9.50;1.60;;;;;;;22.85;98.09;96473.34;5068247;28;20475;-76
2023/10/26 06:57:13;;;;;;;11.48;1.92;;;;;;;23.47;87.27;96454.25;5068118;28;20043;-76
2023/10/26 06:59:41;;;;;;;8.55;2.38;;;;;;;24.46;80.02;96455.47;5067683;28;20492;-76
2023/10/26 07:02:10;;;;;;;10.82;2.20;;;;;;;25.40;73.64;96464.34;5068304;28;20043;-75
2023/10/26 07:04:35;;;;;;;13.55;2.97;;;;;;;25.41;78.95;96481.63;5068071;28;20032;-76
2023/10/26 07:07:01;;;;;;;21.83;3.42;;;;;;;25.45;81.28;96483.69;5070314;28;20490;-76
2023/10/26 07:09:27;;;;;;;10.23;3.75;;;;;;;25.70;80.40;96487.47;5071565;28;20028;-77
2023/10/26 07:11:52;;;;;;;23.17;6.40;;;;;;;26.15;76.36;96482.88;5071641;28;20051;-76
2023/10/26 07:14:18;;;;;;;17.75;5.20;;;;;;;27.15;69.96;96473.81;5071222;28;20085;-76
2023/10/26 07:16:43;;;;;;;11.63;3.38;;;;;;;27.53;66.58;96470.94;5071240;28;20111;-77
2023/10/26 07:19:09;;;;;;;20.50;3.03;;;;;;;27.57;64.66;96460.31;5072440;28;20062;-77
2023/10/26 07:21:36;;;;;;;18.70;3.67;;;;;;;26.92;67.59;96476.31;5071145;28;20504;-77
2023/10/26 07:24:31;;;;;;;;;;;;;;;;;;;;;
2023/10/26 07:26:57;;;;;;;19.70;2.33;;;;;;;26.15;67.73;96466.44;5085813;28;20043;-77
2023/10/26 07:29:22;;;;;;;10.88;2.75;;;;;;;25.66;73.33;96468.94;5087832;28;20554;-77
2023/10/26 07:31:48;;;;;;;6.63;2.05;;;;;;;25.24;64.84;96457.41;5072183;28;20078;-77
2023/10/26 07:34:14;;;;;;;12.70;2.28;;;;;;;24.73;67.32;96462.66;5071025;28;20056;-76
2023/10/26 07:36:39;;;;;;;18.65;3.40;;;;;;;24.57;73.04;96468.56;5070874;28;20059;-74
2023/10/26 07:39:05;;;;;;;11.63;2.35;;;;;;;24.45;71.74;96456.56;5072115;28;20029;-77
2023/10/26 07:41:30;;;;;;;14.85;4.15;;;;;;;24.35;71.45;96460.72;5072112;28;20479;-76
2023/10/26 07:43:56;;;;;;;9.02;2.22;;;;;;;24.19;67.88;96460.06;5072004;28;20073;-76
2023/10/26 07:46:21;;;;;;;8.10;1.92;;;;;;;24.15;68.68;96464.25;5054109;28;20085;-76
2023/10/26 07:48:48;;;;;;;8.98;2.70;;;;;;;24.22;70.45;96456.91;5070677;28;20023;-73
2023/10/26 07:51:13;;;;;;;8.80;2.35;;;;;;;24.20;72.47;96456.28;5071899;28;20028;-75
2023/10/26 07:53:39;;;;;;;9.80;2.17;;;;;;;24.22;69.88;96451.44;5072110;28;20115;-74
2023/10/26 07:56:05;;;;;;;9.93;1.95;;;;;;;24.24;68.26;96454.00;5070280;28;20039;-75
2023/10/26 07:58:32;;;;;;;11.13;2.20;;;;;;;24.30;70.13;96455.03;5071771;28;20025;-74
2023/10/26 08:00:58;;;;;;;15.80;2.30;;;;;;;24.36;69.09;96448.75;5070534;28;20036;-75
2023/10/26 08:03:27;;;;;;;6.43;2.30;;;;;;;24.41;67.32;96447.06;5087302;28;20090;-75
2023/10/26 08:06:02;;;;;;;9.63;2.35;;;;;;;24.36;66.66;96446.00;5071485;28;20077;-74
2023/10/26 08:08:29;;;;;;;6.60;2.00;;;;;;;24.43;67.19;96449.59;5071601;28;20020;-74
2023/10/26 08:10:56;;;;;;;6.70;1.80;;;;;;;24.54;66.17;96436.16;5070186;28;20488;-74
2023/10/26 08:13:22;;;;;;;5.72;1.55;;;;;;;24.51;67.42;96442.03;5070424;28;20470;-76
2023/10/26 08:15:48;;;;;;;8.13;1.70;;;;;;;24.62;66.74;96424.16;5070577;28;20031;-76
2023/10/26 08:18:13;;;;;;;17.27;2.40;;;;;;;24.53;71.97;96439.09;5065538;28;20024;-78
2023/10/26 08:20:40;;;;;;;10.85;3.17;;;;;;;24.50;73.92;96432.16;5071301;28;20155;-77
2023/10/26 08:23:05;;;;;;;15.50;2.63;;;;;;;24.88;74.62;96431.56;5069854;28;20035;-76
2023/10/26 08:25:35;;;;;;;11.70;2.63;;;;;;;24.96;75.17;96432.19;5070280;28;20017;-76
2023/10/26 08:28:01;;;;;;;7.97;2.67;;;;;;;25.17;71.67;96445.63;5071448;28;20028;-75
2023/10/26 08:30:26;;;;;;;18.13;2.65;;;;;;;25.75;71.41;96435.59;5070029;28;20396;-75
2023/10/26 08:32:54;;;;;;;16.00;2.88;;;;;;;27.96;60.55;96440.63;5071198;28;20510;-74
2023/10/26 08:35:20;;;;;;;17.50;2.83;;;;;;;30.21;51.32;96423.69;5069924;28;20147;-76
2023/10/26 08:37:45;;;;;;;12.70;4.65;;;;;;;31.32;47.15;96422.13;5069624;28;20119;-76
2023/10/26 08:40:11;;;;;;;11.50;3.00;;;;;;;32.09;45.12;96418.31;5069782;28;20062;-76
2023/10/26 08:42:40;;;;;;;17.13;3.20;;;;;;;32.17;43.93;96409.56;5069773;28;20028;-77
2023/10/26 08:45:12;;;;;;;19.23;2.67;;;;;;;33.37;42.07;96405.50;5070953;28;20078;-76
2023/10/26 08:47:39;;;;;;;13.55;2.60;;;;;;;34.70;39.35;96398.38;5069759;28;20020;-76
2023/10/26 08:50:06;;;;;;;22.75;2.50;;;;;;;34.99;38.17;96407.03;5069306;28;20119;-75
2023/10/26 08:52:32;;;;;;;12.50;2.92;;;;;;;35.77;35.99;96394.50;5069764;28;20032;-75
2023/10/26 08:54:57;;;;;;;14.57;2.60;;;;;;;35.71;35.37;96395.66;5069435;28;20035;-76
2023/10/26 08:57:25;;;;;;;12.18;2.63;;;;;;;36.35;35.06;96386.50;5069607;28;20048;-74
2023/10/26 08:59:51;;;;;;;6.05;2.20;;;;;;;36.14;34.89;96390.50;5069653;28;20082;-75
2023/10/26 09:02:17;;;;;;;11.25;2.30;;;;;;;36.00;33.68;96376.31;5069713;28;20086;-74
2023/10/26 09:05:08;;;;;;;13.27;2.60;;;;;;;36.05;32.67;96378.28;5069331;28;20426;-74
2023/10/26 09:07:34;;;;;;;5.17;1.73;;;;;;;36.02;32.14;96371.31;5069545;28;20491;-75
2023/10/26 09:10:00;;;;;;;8.73;2.20;;;;;;;36.31;31.94;96365.91;5069289;28;20306;-75
2023/10/26 09:12:25;;;;;;;13.02;2.20;;;;;;;35.41;32.32;96361.44;5069520;28;20025;-76
2023/10/26 09:15:00;;;;;;;13.60;2.08;;;;;;;35.88;31.96;96356.31;5070633;28;20024;-77
2023/10/26 09:17:30;;;;;;;8.65;1.80;;;;;;;34.72;34.36;96371.16;5069319;28;20048;-76
2023/10/26 09:19:57;;;;;;;15.65;2.70;;;;;;;35.60;34.02;96354.19;5069162;28;20112;-76
2023/10/26 09:22:35;;;;;;;8.13;2.35;;;;;;;37.06;31.86;96355.41;5069115;28;20054;-76
2023/10/26 09:25:11;;;;;;;11.10;2.30;;;;;;;36.15;32.43;96351.22;5070398;28;20072;-76
2023/10/26 09:27:38;;;;;;;14.45;2.63;;;;;;;36.89;31.21;96345.47;5052340;28;20432;-75
2023/10/26 09:30:05;;;;;;;12.35;2.38;;;;;;;37.08;30.74;96339.22;5068148;28;20119;-75
2023/10/26 09:32:32;;;;;;;20.33;2.20;;;;;;;36.12;31.87;96339.81;5068999;28;20035;-76
2023/10/26 09:34:57;;;;;;;14.98;2.58;;;;;;;35.19;33.06;96342.28;5085953;28;20017;-75
2023/10/26 09:37:23;;;;;;;12.95;2.28;;;;;;;34.55;33.23;96339.97;5068732;28;20086;-75
2023/10/26 09:39:50;;;;;;;11.82;2.17;;;;;;;33.77;33.82;96333.63;5085749;28;20017;-75
2023/10/26 09:42:16;;;;;;;11.88;2.20;;;;;;;33.01;34.53;96337.00;5068475;28;20060;-75
2023/10/26 09:44:41;;;;;;;12.20;2.35;;;;;;;33.01;34.81;96342.56;5070299;28;20035;-76
2023/10/26 09:47:07;;;;;;;11.25;2.38;;;;;;;32.53;35.48;96341.56;5070505;28;20028;-74
2023/10/26 09:49:33;;;;;;;19.58;3.10;;;;;;;32.56;36.03;96341.06;5043983;28;20115;-75
2023/10/26 09:51:58;;;;;;;13.88;2.58;;;;;;;31.26;35.79;96323.63;5051962;28;20128;-74
2023/10/26 09:54:32;;;;;;;16.98;2.35;;;;;;;30.96;36.71;96324.88;5070321;28;20150;-74
2023/10/26 09:57:01;;;;;;;13.00;2.53;;;;;;;31.56;37.05;96327.69;5068712;28;20576;-73
2023/10/26 09:59:27;;;;;;;14.88;3.13;;;;;;;32.98;35.67;96332.00;5068463;28;20048;-75
2023/10/26 10:01:53;;;;;;;13.40;3.83;;;;;;;34.27;32.67;96334.94;5068817;28;20435;-74
2023/10/26 10:04:35;;;;;;;7.38;2.22;;;;;;;33.86;31.34;96322.00;5085182;28;20055;-74
2023/10/26 10:07:02;;;;;;;6.90;1.70;;;;;;;33.16;33.08;96323.28;5085539;28;20071;-74
2023/10/26 10:09:29;;;;;;;11.05;2.47;;;;;;;34.09;32.73;96327.06;5068462;28;20450;-75
2023/10/26 10:12:04;;;;;;;12.57;2.30;;;;;;;35.79;30.01;96311.53;5085511;28;20021;-75
2023/10/26 10:14:47;;;;;;;12.13;2.15;;;;;;;35.35;29.88;96302.19;5068665;28;20032;-75
2023/10/26 10:17:19;;;;;;;13.90;2.90;;;;;;;35.35;30.84;96303.00;5069647;28;20032;-75
2023/10/26 10:19:46;;;;;;;8.07;1.80;;;;;;;36.78;28.93;96304.03;5068437;28;20399;-74
2023/10/26 10:22:34;;;;;;;7.97;1.40;;;;;;;36.76;28.55;96286.75;5068292;28;20070;-75
2023/10/26 10:25:00;;;;;;;4.25;1.70;;;;;;;35.88;28.76;96281.97;5065557;28;20035;-75
2023/10/26 10:27:25;;;;;;;5.03;1.65;;;;;;;35.17;28.86;96270.25;5068746;28;20070;-75
2023/10/26 10:29:55;;;;;;;9.82;2.33;;;;;;;35.02;29.67;96259.13;5068392;28;20016;-75
2023/10/26 10:32:49;;;;;;;11.48;2.17;;;;;;;35.70;28.93;96260.34;5068412;28;20020;-76
2023/10/26 10:35:21;;;;;;;20.10;2.45;;;;;;;34.55;29.50;96253.84;5085162;28;20032;-75
2023/10/26 10:38:16;;;;;;;14.90;2.05;;;;;;;33.84;30.87;96265.94;5084806;28;20544;-75
2023/10/26 10:41:02;;;;;;;11.25;1.75;;;;;;;34.98;29.26;96252.44;5084858;28;20553;-75
2023/10/26 10:43:34;;;;;;;6.88;1.92;;;;;;;34.92;29.50;96247.19;5073251;28;20126;-75
2023/10/26 10:46:21;;;;;;;4.90;1.58;;;;;;;34.78;29.51;96239.44;5073591;28;20487;-75
2023/10/26 10:48:57;;;;;;;8.32;1.75;;;;;;;35.79;28.36;96233.59;5073273;28;20411;-75
2023/10/26 10:51:36;;;;;;;8.82;1.90;;;;;;;35.90;28.25;96232.41;5071871;28;20127;-74
2023/10/26 10:54:05;;;;;;;7.45;1.50;;;;;;;35.48;28.33;96220.91;5088988;28;20071;-74
2023/10/26 10:56:46;;;;;;;8.75;1.60;;;;;;;34.68;29.01;96219.13;5071902;28;20032;-74
2023/10/26 10:59:41;;;;;;;11.65;1.73;;;;;;;33.60;29.77;96224.78;5071957;28;20055;-74
2023/10/26 11:02:13;;;;;;;8.18;1.80;;;;;;;33.60;30.08;96223.94;5068352;28;20474;-75
2023/10/26 11:04:57;;;;;;;18.90;2.28;;;;;;;33.81;29.66;96208.22;5071888;28;20020;-74
2023/10/26 11:07:27;;;;;;;6.25;1.50;;;;;;;32.61;30.63;96210.06;5072962;28;20163;-74
2023/10/26 11:10:00;;;;;;;11.13;1.83;;;;;;;31.97;31.54;96214.72;5071386;28;20350;-74
2023/10/26 11:12:26;;;;;;;9.95;3.38;;;;;;;32.85;31.24;96211.34;5071548;28;20126;-75
2023/10/26 11:14:53;;;;;;;7.93;1.63;;;;;;;32.41;31.74;96205.19;5072721;28;20546;-74
2023/10/26 11:17:26;;;;;;;11.55;1.60;;;;;;;31.48;32.55;96211.97;5088237;28;20034;-75
2023/10/26 11:19:52;;;;;;;5.07;1.33;;;;;;;31.41;32.56;96208.56;5072547;28;20017;-75
2023/10/26 11:22:18;;;;;;;4.60;1.40;;;;;;;31.23;33.25;96211.66;5071485;28;20086;-75
2023/10/26 11:24:44;;;;;;;3.95;1.38;;;;;;;30.97;33.32;96215.19;5052026;28;20021;-74